Terminal Aerodrome Forecast
Issued by NWS

Home | Current Version | Previous Version | Text Only | Print | Product List | Glossary On
Versions: 1 2 3 4 5 6 7 8 9 10 11 12 13 14 15 16 17 18 19 20 21
000
FTUS46 KMFR 211700
TAFOTH
TAF
KOTH 211734Z 2118/2218 VRB03KT P6SM SKC
     FM212000 33008KT P6SM SKC
     FM212200 35014G20KT P6SM SKC
     FM220300 34008KT P6SM BKN010
     FM220900 14004KT 4SM BR OVC007=

USA.gov is the U.S. government's official web portal to all federal, state and local government web resources and services.